sensor_id;sensor_type;location;lat;lon;timestamp;temperature;humidity
18456;DHT22;9357;49.900;8.208;2022-11-14T00:00:04;7.30;99.90
18456;DHT22;9357;49.900;8.208;2022-11-14T00:01:37;7.20;99.90
18456;DHT22;9357;49.900;8.208;2022-11-14T00:03:11;7.20;99.90
18456;DHT22;9357;49.900;8.208;2022-11-14T00:04:44;7.20;99.90
18456;DHT22;9357;49.900;8.208;2022-11-14T00:06:19;7.20;99.90
18456;DHT22;9357;49.900;8.208;2022-11-14T00:07:52;7.10;99.90
18456;DHT22;9357;49.900;8.208;2022-11-14T00:09:25;7.10;99.90
18456;DHT22;9357;49.900;8.208;2022-11-14T00:10:57;7.10;99.90
18456;DHT22;9357;49.900;8.208;2022-11-14T00:12:30;7.10;99.90
18456;DHT22;9357;49.900;8.208;2022-11-14T00:14:03;7.10;99.90
18456;DHT22;9357;49.900;8.208;2022-11-14T00:15:35;7.00;99.90
18456;DHT22;9357;49.900;8.208;2022-11-14T00:17:08;7.00;99.90
18456;DHT22;9357;49.900;8.208;2022-11-14T00:18:41;6.90;99.90
18456;DHT22;9357;49.900;8.208;2022-11-14T00:20:14;6.80;99.90
18456;DHT22;9357;49.900;8.208;2022-11-14T00:21:48;6.70;99.90
18456;DHT22;9357;49.900;8.208;2022-11-14T00:23:23;6.70;99.90
18456;DHT22;9357;49.900;8.208;2022-11-14T00:24:55;6.60;99.90
18456;DHT22;9357;49.900;8.208;2022-11-14T00:26:28;6.50;99.90
18456;DHT22;9357;49.900;8.208;2022-11-14T00:28:01;6.60;99.90
18456;DHT22;9357;49.900;8.208;2022-11-14T00:29:34;6.50;99.90
18456;DHT22;9357;49.900;8.208;2022-11-14T00:31:08;6.50;99.90
18456;DHT22;9357;49.900;8.208;2022-11-14T00:32:41;6.50;99.90
18456;DHT22;9357;49.900;8.208;2022-11-14T00:34:14;6.40;99.90
18456;DHT22;9357;49.900;8.208;2022-11-14T00:35:51;6.40;99.90
18456;DHT22;9357;49.900;8.208;2022-11-14T00:37:25;6.30;99.90
18456;DHT22;9357;49.900;8.208;2022-11-14T00:38:58;6.30;99.90
18456;DHT22;9357;49.900;8.208;2022-11-14T00:40:31;6.20;99.90
18456;DHT22;9357;49.900;8.208;2022-11-14T00:42:04;6.20;99.90
18456;DHT22;9357;49.900;8.208;2022-11-14T00:43:36;6.20;99.90
18456;DHT22;9357;49.900;8.208;2022-11-14T00:45:09;6.10;99.90
18456;DHT22;9357;49.900;8.208;2022-11-14T00:46:42;6.10;99.90
18456;DHT22;9357;49.900;8.208;2022-11-14T00:48:15;6.10;99.90
18456;DHT22;9357;49.900;8.208;2022-11-14T00:49:48;6.00;99.90
18456;DHT22;9357;49.900;8.208;2022-11-14T00:51:21;6.00;99.90
18456;DHT22;9357;49.900;8.208;2022-11-14T00:52:55;6.00;99.90
18456;DHT22;9357;49.900;8.208;2022-11-14T00:54:28;6.00;99.90
18456;DHT22;9357;49.900;8.208;2022-11-14T00:56:01;5.90;99.90
18456;DHT22;9357;49.900;8.208;2022-11-14T00:57:33;5.90;99.90
18456;DHT22;9357;49.900;8.208;2022-11-14T00:59:06;5.90;99.90
18456;DHT22;9357;49.900;8.208;2022-11-14T01:00:39;5.90;99.90
18456;DHT22;9357;49.900;8.208;2022-11-14T01:02:12;5.80;99.90
18456;DHT22;9357;49.900;8.208;2022-11-14T01:03:47;5.70;99.90
18456;DHT22;9357;49.900;8.208;2022-11-14T01:05:19;5.70;99.90
18456;DHT22;9357;49.900;8.208;2022-11-14T01:06:52;5.70;99.90
18456;DHT22;9357;49.900;8.208;2022-11-14T01:08:26;5.70;99.90
18456;DHT22;9357;49.900;8.208;2022-11-14T01:09:58;5.60;99.90
18456;DHT22;9357;49.900;8.208;2022-11-14T01:11:31;5.60;99.90
18456;DHT22;9357;49.900;8.208;2022-11-14T01:13:04;5.50;99.90
18456;DHT22;9357;49.900;8.208;2022-11-14T01:14:38;5.50;99.90
18456;DHT22;9357;49.900;8.208;2022-11-14T01:16:10;5.40;99.90
18456;DHT22;9357;49.900;8.208;2022-11-14T01:17:43;5.30;99.90
18456;DHT22;9357;49.900;8.208;2022-11-14T01:19:16;5.20;99.90
18456;DHT22;9357;49.900;8.208;2022-11-14T01:20:49;5.20;99.90
18456;DHT22;9357;49.900;8.208;2022-11-14T01:22:21;5.20;99.90
18456;DHT22;9357;49.900;8.208;2022-11-14T01:23:56;5.20;99.90
18456;DHT22;9357;49.900;8.208;2022-11-14T01:25:28;5.20;99.90
18456;DHT22;9357;49.900;8.208;2022-11-14T01:27:01;5.20;99.90
18456;DHT22;9357;49.900;8.208;2022-11-14T01:28:34;5.20;99.90
18456;DHT22;9357;49.900;8.208;2022-11-14T01:30:08;5.20;99.90
18456;DHT22;9357;49.900;8.208;2022-11-14T01:31:41;5.20;99.90
18456;DHT22;9357;49.900;8.208;2022-11-14T01:33:14;5.20;99.90
18456;DHT22;9357;49.900;8.208;2022-11-14T01:34:46;5.10;99.90
18456;DHT22;9357;49.900;8.208;2022-11-14T01:36:20;5.20;99.90
18456;DHT22;9357;49.900;8.208;2022-11-14T01:37:52;5.20;99.90
18456;DHT22;9357;49.900;8.208;2022-11-14T01:39:27;5.20;99.90
18456;DHT22;9357;49.900;8.208;2022-11-14T01:41:00;5.20;99.90
18456;DHT22;9357;49.900;8.208;2022-11-14T01:42:33;5.30;99.90
18456;DHT22;9357;49.900;8.208;2022-11-14T01:44:11;5.30;99.90
18456;DHT22;9357;49.900;8.208;2022-11-14T01:45:52;5.30;99.90
18456;DHT22;9357;49.900;8.208;2022-11-14T01:47:27;5.30;99.90
18456;DHT22;9357;49.900;8.208;2022-11-14T01:49:07;5.30;99.90
18456;DHT22;9357;49.900;8.208;2022-11-14T01:50:43;5.40;99.90
18456;DHT22;9357;49.900;8.208;2022-11-14T01:52:17;5.40;99.90
18456;DHT22;9357;49.900;8.208;2022-11-14T01:53:54;5.50;99.90
18456;DHT22;9357;49.900;8.208;2022-11-14T01:55:28;5.50;99.90
18456;DHT22;9357;49.900;8.208;2022-11-14T01:57:02;5.50;99.90
18456;DHT22;9357;49.900;8.208;2022-11-14T01:58:38;5.50;99.90
18456;DHT22;9357;49.900;8.208;2022-11-14T02:00:13;5.60;99.90
18456;DHT22;9357;49.900;8.208;2022-11-14T02:01:49;5.60;99.90
18456;DHT22;9357;49.900;8.208;2022-11-14T02:03:22;5.60;99.90
18456;DHT22;9357;49.900;8.208;2022-11-14T02:04:59;5.60;99.90
18456;DHT22;9357;49.900;8.208;2022-11-14T02:06:34;5.70;99.90
18456;DHT22;9357;49.900;8.208;2022-11-14T02:08:10;5.70;99.90
18456;DHT22;9357;49.900;8.208;2022-11-14T02:09:45;5.70;99.90
18456;DHT22;9357;49.900;8.208;2022-11-14T02:11:20;5.70;99.90
18456;DHT22;9357;49.900;8.208;2022-11-14T02:12:53;5.70;99.90
18456;DHT22;9357;49.900;8.208;2022-11-14T02:14:25;5.70;99.90
18456;DHT22;9357;49.900;8.208;2022-11-14T02:15:58;5.70;99.90
18456;DHT22;9357;49.900;8.208;2022-11-14T02:17:31;5.70;99.90
18456;DHT22;9357;49.900;8.208;2022-11-14T02:19:05;5.80;99.90
18456;DHT22;9357;49.900;8.208;2022-11-14T02:20:38;5.80;99.90
18456;DHT22;9357;49.900;8.208;2022-11-14T02:22:13;5.90;99.90
18456;DHT22;9357;49.900;8.208;2022-11-14T02:23:46;5.90;99.90
18456;DHT22;9357;49.900;8.208;2022-11-14T02:25:20;5.80;99.90
18456;DHT22;9357;49.900;8.208;2022-11-14T02:26:53;5.90;99.90
18456;DHT22;9357;49.900;8.208;2022-11-14T02:28:26;5.90;99.90
18456;DHT22;9357;49.900;8.208;2022-11-14T02:30:03;5.90;99.90
18456;DHT22;9357;49.900;8.208;2022-11-14T02:31:36;5.90;99.90
18456;DHT22;9357;49.900;8.208;2022-11-14T02:33:08;5.90;99.90
18456;DHT22;9357;49.900;8.208;2022-11-14T02:34:42;5.90;99.90
18456;DHT22;9357;49.900;8.208;2022-11-14T02:36:16;5.80;99.90
18456;DHT22;9357;49.900;8.208;2022-11-14T02:37:49;5.70;99.90
18456;DHT22;9357;49.900;8.208;2022-11-14T02:39:22;5.70;99.90
18456;DHT22;9357;49.900;8.208;2022-11-14T02:40:54;5.70;99.90
18456;DHT22;9357;49.900;8.208;2022-11-14T02:42:26;5.70;99.90
18456;DHT22;9357;49.900;8.208;2022-11-14T02:43:58;5.70;99.90
18456;DHT22;9357;49.900;8.208;2022-11-14T02:45:31;5.70;99.90
18456;DHT22;9357;49.900;8.208;2022-11-14T02:47:04;5.70;99.90
18456;DHT22;9357;49.900;8.208;2022-11-14T02:48:37;5.70;99.90
18456;DHT22;9357;49.900;8.208;2022-11-14T02:50:09;5.70;99.90
18456;DHT22;9357;49.900;8.208;2022-11-14T02:51:43;5.70;99.90
18456;DHT22;9357;49.900;8.208;2022-11-14T02:53:15;5.70;99.90
18456;DHT22;9357;49.900;8.208;2022-11-14T02:54:48;5.70;99.90
18456;DHT22;9357;49.900;8.208;2022-11-14T02:56:25;5.70;99.90
18456;DHT22;9357;49.900;8.208;2022-11-14T02:57:58;5.60;99.90
18456;DHT22;9357;49.900;8.208;2022-11-14T02:59:30;5.60;99.90
18456;DHT22;9357;49.900;8.208;2022-11-14T03:01:03;5.60;99.90
18456;DHT22;9357;49.900;8.208;2022-11-14T03:02:52;5.60;99.90
18456;DHT22;9357;49.900;8.208;2022-11-14T03:04:25;5.50;99.90
18456;DHT22;9357;49.900;8.208;2022-11-14T03:05:58;5.50;99.90
18456;DHT22;9357;49.900;8.208;2022-11-14T03:07:32;5.50;99.90
18456;DHT22;9357;49.900;8.208;2022-11-14T03:09:05;5.50;99.90
18456;DHT22;9357;49.900;8.208;2022-11-14T03:10:38;5.40;99.90
18456;DHT22;9357;49.900;8.208;2022-11-14T03:12:12;5.50;99.90
18456;DHT22;9357;49.900;8.208;2022-11-14T03:13:46;5.40;99.90
18456;DHT22;9357;49.900;8.208;2022-11-14T03:15:19;5.40;99.90
18456;DHT22;9357;49.900;8.208;2022-11-14T03:16:53;5.40;99.90
18456;DHT22;9357;49.900;8.208;2022-11-14T03:18:26;5.30;99.90
18456;DHT22;9357;49.900;8.208;2022-11-14T03:20:00;5.30;99.90
18456;DHT22;9357;49.900;8.208;2022-11-14T03:21:33;5.30;99.90
18456;DHT22;9357;49.900;8.208;2022-11-14T03:23:07;5.30;99.90
18456;DHT22;9357;49.900;8.208;2022-11-14T03:24:39;5.30;99.90
18456;DHT22;9357;49.900;8.208;2022-11-14T03:26:13;5.30;99.90
18456;DHT22;9357;49.900;8.208;2022-11-14T03:27:46;5.30;99.90
18456;DHT22;9357;49.900;8.208;2022-11-14T03:29:19;5.30;99.90
18456;DHT22;9357;49.900;8.208;2022-11-14T03:30:51;5.30;99.90
18456;DHT22;9357;49.900;8.208;2022-11-14T03:32:24;5.40;99.90
18456;DHT22;9357;49.900;8.208;2022-11-14T03:33:56;5.30;99.90
18456;DHT22;9357;49.900;8.208;2022-11-14T03:35:29;5.40;99.90
18456;DHT22;9357;49.900;8.208;2022-11-14T03:37:02;5.40;99.90
18456;DHT22;9357;49.900;8.208;2022-11-14T03:38:35;5.30;99.90
18456;DHT22;9357;49.900;8.208;2022-11-14T03:40:09;5.40;99.90
18456;DHT22;9357;49.900;8.208;2022-11-14T03:41:41;5.40;99.90
18456;DHT22;9357;49.900;8.208;2022-11-14T03:43:14;5.40;99.90
18456;DHT22;9357;49.900;8.208;2022-11-14T03:44:47;5.40;99.90
18456;DHT22;9357;49.900;8.208;2022-11-14T03:46:20;5.40;99.90
18456;DHT22;9357;49.900;8.208;2022-11-14T03:47:53;5.40;99.90
18456;DHT22;9357;49.900;8.208;2022-11-14T03:49:26;5.40;99.90
18456;DHT22;9357;49.900;8.208;2022-11-14T03:50:59;5.40;99.90
18456;DHT22;9357;49.900;8.208;2022-11-14T03:52:31;5.30;99.90
18456;DHT22;9357;49.900;8.208;2022-11-14T03:54:06;5.30;99.90
18456;DHT22;9357;49.900;8.208;2022-11-14T03:55:38;5.30;99.90
18456;DHT22;9357;49.900;8.208;2022-11-14T03:57:10;5.30;99.90
18456;DHT22;9357;49.900;8.208;2022-11-14T03:58:43;5.30;99.90
18456;DHT22;9357;49.900;8.208;2022-11-14T04:00:17;5.30;99.90
18456;DHT22;9357;49.900;8.208;2022-11-14T04:01:49;5.30;99.90
18456;DHT22;9357;49.900;8.208;2022-11-14T04:03:23;5.30;99.90
18456;DHT22;9357;49.900;8.208;2022-11-14T04:04:54;5.30;99.90
18456;DHT22;9357;49.900;8.208;2022-11-14T04:06:27;5.30;99.90
18456;DHT22;9357;49.900;8.208;2022-11-14T04:08:03;5.30;99.90
18456;DHT22;9357;49.900;8.208;2022-11-14T04:09:37;5.40;99.90
18456;DHT22;9357;49.900;8.208;2022-11-14T04:11:10;5.40;99.90
18456;DHT22;9357;49.900;8.208;2022-11-14T04:12:46;5.40;99.90
18456;DHT22;9357;49.900;8.208;2022-11-14T04:14:19;5.40;99.90
18456;DHT22;9357;49.900;8.208;2022-11-14T04:15:55;5.30;99.90
18456;DHT22;9357;49.900;8.208;2022-11-14T04:17:28;5.30;99.90
18456;DHT22;9357;49.900;8.208;2022-11-14T04:19:06;5.30;99.90
18456;DHT22;9357;49.900;8.208;2022-11-14T04:20:39;5.30;99.90
18456;DHT22;9357;49.900;8.208;2022-11-14T04:22:11;5.30;99.90
18456;DHT22;9357;49.900;8.208;2022-11-14T04:23:43;5.30;99.90
18456;DHT22;9357;49.900;8.208;2022-11-14T04:25:17;5.30;99.90
18456;DHT22;9357;49.900;8.208;2022-11-14T04:26:50;5.30;99.90
18456;DHT22;9357;49.900;8.208;2022-11-14T04:28:23;5.30;99.90
18456;DHT22;9357;49.900;8.208;2022-11-14T04:29:56;5.30;99.90
18456;DHT22;9357;49.900;8.208;2022-11-14T04:31:28;5.30;99.90
18456;DHT22;9357;49.900;8.208;2022-11-14T04:33:01;5.30;99.90
18456;DHT22;9357;49.900;8.208;2022-11-14T04:34:34;5.20;99.90
18456;DHT22;9357;49.900;8.208;2022-11-14T04:36:07;5.20;99.90
18456;DHT22;9357;49.900;8.208;2022-11-14T04:37:40;5.20;99.90
18456;DHT22;9357;49.900;8.208;2022-11-14T04:39:13;5.20;99.90
18456;DHT22;9357;49.900;8.208;2022-11-14T04:40:50;5.20;99.90
18456;DHT22;9357;49.900;8.208;2022-11-14T04:42:23;5.20;99.90
18456;DHT22;9357;49.900;8.208;2022-11-14T04:43:56;5.20;99.90
18456;DHT22;9357;49.900;8.208;2022-11-14T04:45:29;5.20;99.90
18456;DHT22;9357;49.900;8.208;2022-11-14T04:47:02;5.20;99.90
18456;DHT22;9357;49.900;8.208;2022-11-14T04:48:35;5.20;99.90
18456;DHT22;9357;49.900;8.208;2022-11-14T04:50:08;5.20;99.90
18456;DHT22;9357;49.900;8.208;2022-11-14T04:51:41;5.20;99.90
18456;DHT22;9357;49.900;8.208;2022-11-14T04:53:14;5.20;99.90
18456;DHT22;9357;49.900;8.208;2022-11-14T04:54:47;5.30;99.90
18456;DHT22;9357;49.900;8.208;2022-11-14T04:56:21;5.30;99.90
18456;DHT22;9357;49.900;8.208;2022-11-14T04:57:56;5.30;99.90
18456;DHT22;9357;49.900;8.208;2022-11-14T04:59:29;5.30;99.90
18456;DHT22;9357;49.900;8.208;2022-11-14T05:01:06;5.30;99.90
18456;DHT22;9357;49.900;8.208;2022-11-14T05:02:39;5.30;99.90
18456;DHT22;9357;49.900;8.208;2022-11-14T05:04:12;5.40;99.90
18456;DHT22;9357;49.900;8.208;2022-11-14T05:05:45;5.40;99.90
18456;DHT22;9357;49.900;8.208;2022-11-14T05:07:17;5.40;99.90
18456;DHT22;9357;49.900;8.208;2022-11-14T05:08:49;5.40;99.90
18456;DHT22;9357;49.900;8.208;2022-11-14T05:10:22;5.40;99.90
18456;DHT22;9357;49.900;8.208;2022-11-14T05:11:56;5.50;99.90
18456;DHT22;9357;49.900;8.208;2022-11-14T05:13:29;5.50;99.90
18456;DHT22;9357;49.900;8.208;2022-11-14T05:15:02;5.50;99.90
18456;DHT22;9357;49.900;8.208;2022-11-14T05:16:34;5.50;99.90
18456;DHT22;9357;49.900;8.208;2022-11-14T05:18:07;5.50;99.90
18456;DHT22;9357;49.900;8.208;2022-11-14T05:19:40;5.60;99.90
18456;DHT22;9357;49.900;8.208;2022-11-14T05:21:13;5.60;99.90
18456;DHT22;9357;49.900;8.208;2022-11-14T05:22:45;5.60;99.90
18456;DHT22;9357;49.900;8.208;2022-11-14T05:24:18;5.60;99.90
18456;DHT22;9357;49.900;8.208;2022-11-14T05:25:58;5.60;99.90
18456;DHT22;9357;49.900;8.208;2022-11-14T05:27:32;5.60;99.90
18456;DHT22;9357;49.900;8.208;2022-11-14T05:29:05;5.50;99.90
18456;DHT22;9357;49.900;8.208;2022-11-14T05:30:38;5.60;99.90
18456;DHT22;9357;49.900;8.208;2022-11-14T05:32:10;5.50;99.90
18456;DHT22;9357;49.900;8.208;2022-11-14T05:33:47;5.50;99.90
18456;DHT22;9357;49.900;8.208;2022-11-14T05:35:19;5.50;99.90
18456;DHT22;9357;49.900;8.208;2022-11-14T05:36:52;5.50;99.90
18456;DHT22;9357;49.900;8.208;2022-11-14T05:38:25;5.50;99.90
18456;DHT22;9357;49.900;8.208;2022-11-14T05:39:58;5.50;99.90
18456;DHT22;9357;49.900;8.208;2022-11-14T05:41:31;5.50;99.90
18456;DHT22;9357;49.900;8.208;2022-11-14T05:43:05;5.50;99.90
18456;DHT22;9357;49.900;8.208;2022-11-14T05:44:38;5.50;99.90
18456;DHT22;9357;49.900;8.208;2022-11-14T05:46:13;5.50;99.90
18456;DHT22;9357;49.900;8.208;2022-11-14T05:47:46;5.50;99.90
18456;DHT22;9357;49.900;8.208;2022-11-14T05:49:18;5.50;99.90
18456;DHT22;9357;49.900;8.208;2022-11-14T05:50:53;5.50;99.90
18456;DHT22;9357;49.900;8.208;2022-11-14T05:52:26;5.50;99.90
18456;DHT22;9357;49.900;8.208;2022-11-14T05:53:58;5.50;99.90
18456;DHT22;9357;49.900;8.208;2022-11-14T05:55:31;5.50;99.90
18456;DHT22;9357;49.900;8.208;2022-11-14T05:57:04;5.50;99.90
18456;DHT22;9357;49.900;8.208;2022-11-14T05:58:38;5.60;99.90
18456;DHT22;9357;49.900;8.208;2022-11-14T06:00:12;5.60;99.90
18456;DHT22;9357;49.900;8.208;2022-11-14T06:01:45;5.60;99.90
18456;DHT22;9357;49.900;8.208;2022-11-14T06:03:18;5.60;99.90
18456;DHT22;9357;49.900;8.208;2022-11-14T06:04:51;5.60;99.90
18456;DHT22;9357;49.900;8.208;2022-11-14T06:06:23;5.60;99.90
18456;DHT22;9357;49.900;8.208;2022-11-14T06:07:57;5.60;99.90
18456;DHT22;9357;49.900;8.208;2022-11-14T06:09:30;5.60;99.90
18456;DHT22;9357;49.900;8.208;2022-11-14T06:11:04;5.60;99.90
18456;DHT22;9357;49.900;8.208;2022-11-14T06:12:37;5.60;99.90
18456;DHT22;9357;49.900;8.208;2022-11-14T06:14:11;5.60;99.90
18456;DHT22;9357;49.900;8.208;2022-11-14T06:15:44;5.60;99.90
18456;DHT22;9357;49.900;8.208;2022-11-14T06:17:17;5.60;99.90
18456;DHT22;9357;49.900;8.208;2022-11-14T06:18:51;5.60;99.90
18456;DHT22;9357;49.900;8.208;2022-11-14T06:20:24;5.60;99.90
18456;DHT22;9357;49.900;8.208;2022-11-14T06:21:57;5.60;99.90
18456;DHT22;9357;49.900;8.208;2022-11-14T06:23:30;5.60;99.90
18456;DHT22;9357;49.900;8.208;2022-11-14T06:25:03;5.60;99.90
18456;DHT22;9357;49.900;8.208;2022-11-14T06:26:36;5.60;99.90
18456;DHT22;9357;49.900;8.208;2022-11-14T06:28:08;5.60;99.90
18456;DHT22;9357;49.900;8.208;2022-11-14T06:29:43;5.60;99.90
18456;DHT22;9357;49.900;8.208;2022-11-14T06:31:16;5.60;99.90
18456;DHT22;9357;49.900;8.208;2022-11-14T06:32:49;5.50;99.90
18456;DHT22;9357;49.900;8.208;2022-11-14T06:34:22;5.50;99.90
18456;DHT22;9357;49.900;8.208;2022-11-14T06:35:58;5.50;99.90
18456;DHT22;9357;49.900;8.208;2022-11-14T06:37:31;5.50;99.90
18456;DHT22;9357;49.900;8.208;2022-11-14T06:39:04;5.50;99.90
18456;DHT22;9357;49.900;8.208;2022-11-14T06:40:37;5.50;99.90
18456;DHT22;9357;49.900;8.208;2022-11-14T06:42:10;5.50;99.90
18456;DHT22;9357;49.900;8.208;2022-11-14T06:43:44;5.50;99.90
18456;DHT22;9357;49.900;8.208;2022-11-14T06:45:18;5.40;99.90
18456;DHT22;9357;49.900;8.208;2022-11-14T06:46:51;5.40;99.90
18456;DHT22;9357;49.900;8.208;2022-11-14T06:48:24;5.40;99.90
18456;DHT22;9357;49.900;8.208;2022-11-14T06:49:56;5.50;99.90
18456;DHT22;9357;49.900;8.208;2022-11-14T06:51:29;5.50;99.90
18456;DHT22;9357;49.900;8.208;2022-11-14T06:53:01;5.50;99.90
18456;DHT22;9357;49.900;8.208;2022-11-14T06:54:34;5.50;99.90
18456;DHT22;9357;49.900;8.208;2022-11-14T06:56:09;5.50;99.90
18456;DHT22;9357;49.900;8.208;2022-11-14T06:57:42;5.50;99.90
18456;DHT22;9357;49.900;8.208;2022-11-14T06:59:15;5.50;99.90
18456;DHT22;9357;49.900;8.208;2022-11-14T07:00:49;5.50;99.90
18456;DHT22;9357;49.900;8.208;2022-11-14T07:02:21;5.50;99.90
18456;DHT22;9357;49.900;8.208;2022-11-14T07:03:54;5.50;99.90
18456;DHT22;9357;49.900;8.208;2022-11-14T07:05:29;5.50;99.90
18456;DHT22;9357;49.900;8.208;2022-11-14T07:07:01;5.50;99.90
18456;DHT22;9357;49.900;8.208;2022-11-14T07:08:34;5.50;99.90
18456;DHT22;9357;49.900;8.208;2022-11-14T07:10:08;5.50;99.90
18456;DHT22;9357;49.900;8.208;2022-11-14T07:11:41;5.60;99.90
18456;DHT22;9357;49.900;8.208;2022-11-14T07:13:16;5.60;99.90
18456;DHT22;9357;49.900;8.208;2022-11-14T07:14:49;5.60;99.90
18456;DHT22;9357;49.900;8.208;2022-11-14T07:16:25;5.60;99.90
18456;DHT22;9357;49.900;8.208;2022-11-14T07:17:59;5.60;99.90
18456;DHT22;9357;49.900;8.208;2022-11-14T07:19:32;5.60;99.90
18456;DHT22;9357;49.900;8.208;2022-11-14T07:21:05;5.60;99.90
18456;DHT22;9357;49.900;8.208;2022-11-14T07:22:38;5.60;99.90
18456;DHT22;9357;49.900;8.208;2022-11-14T07:24:11;5.60;99.90
18456;DHT22;9357;49.900;8.208;2022-11-14T07:25:44;5.50;99.90
18456;DHT22;9357;49.900;8.208;2022-11-14T07:27:16;5.50;99.90
18456;DHT22;9357;49.900;8.208;2022-11-14T07:28:49;5.50;99.90
18456;DHT22;9357;49.900;8.208;2022-11-14T07:30:27;5.50;99.90
18456;DHT22;9357;49.900;8.208;2022-11-14T07:32:01;5.50;99.90
18456;DHT22;9357;49.900;8.208;2022-11-14T07:33:34;5.50;99.90
18456;DHT22;9357;49.900;8.208;2022-11-14T07:35:07;5.50;99.90
18456;DHT22;9357;49.900;8.208;2022-11-14T07:36:40;5.50;99.90
18456;DHT22;9357;49.900;8.208;2022-11-14T07:38:13;5.50;99.90
18456;DHT22;9357;49.900;8.208;2022-11-14T07:39:46;5.50;99.90
18456;DHT22;9357;49.900;8.208;2022-11-14T07:41:19;5.60;99.90
18456;DHT22;9357;49.900;8.208;2022-11-14T07:42:56;5.50;99.90
18456;DHT22;9357;49.900;8.208;2022-11-14T07:44:29;5.50;99.90
18456;DHT22;9357;49.900;8.208;2022-11-14T07:46:04;5.50;99.90
18456;DHT22;9357;49.900;8.208;2022-11-14T07:47:38;5.50;99.90
18456;DHT22;9357;49.900;8.208;2022-11-14T07:49:11;5.50;99.90
18456;DHT22;9357;49.900;8.208;2022-11-14T07:50:43;5.50;99.90
18456;DHT22;9357;49.900;8.208;2022-11-14T07:52:17;5.60;99.90
18456;DHT22;9357;49.900;8.208;2022-11-14T07:53:50;5.60;99.90
18456;DHT22;9357;49.900;8.208;2022-11-14T07:55:24;5.60;99.90
18456;DHT22;9357;49.900;8.208;2022-11-14T07:56:57;5.60;99.90
18456;DHT22;9357;49.900;8.208;2022-11-14T07:58:29;5.70;99.90
18456;DHT22;9357;49.900;8.208;2022-11-14T08:00:03;5.70;99.90
18456;DHT22;9357;49.900;8.208;2022-11-14T08:01:36;5.70;99.90
18456;DHT22;9357;49.900;8.208;2022-11-14T08:03:10;5.70;99.90
18456;DHT22;9357;49.900;8.208;2022-11-14T08:04:43;5.70;99.90
18456;DHT22;9357;49.900;8.208;2022-11-14T08:06:15;5.80;99.90
18456;DHT22;9357;49.900;8.208;2022-11-14T08:07:49;5.80;99.90
18456;DHT22;9357;49.900;8.208;2022-11-14T08:09:23;5.80;99.90
18456;DHT22;9357;49.900;8.208;2022-11-14T08:10:56;5.80;99.90
18456;DHT22;9357;49.900;8.208;2022-11-14T08:12:29;5.80;99.90
18456;DHT22;9357;49.900;8.208;2022-11-14T08:14:02;5.80;99.90
18456;DHT22;9357;49.900;8.208;2022-11-14T08:15:35;5.90;99.90
18456;DHT22;9357;49.900;8.208;2022-11-14T08:17:07;5.90;99.90
18456;DHT22;9357;49.900;8.208;2022-11-14T08:18:41;5.90;99.90
18456;DHT22;9357;49.900;8.208;2022-11-14T08:20:14;5.90;99.90
18456;DHT22;9357;49.900;8.208;2022-11-14T08:21:47;6.00;99.90
18456;DHT22;9357;49.900;8.208;2022-11-14T08:23:20;6.00;99.90
18456;DHT22;9357;49.900;8.208;2022-11-14T08:24:53;5.90;99.90
18456;DHT22;9357;49.900;8.208;2022-11-14T08:26:25;5.90;99.90
18456;DHT22;9357;49.900;8.208;2022-11-14T08:28:05;5.90;99.90
18456;DHT22;9357;49.900;8.208;2022-11-14T08:29:37;5.90;99.90
18456;DHT22;9357;49.900;8.208;2022-11-14T08:31:10;5.90;99.90
18456;DHT22;9357;49.900;8.208;2022-11-14T08:32:44;5.90;99.90
18456;DHT22;9357;49.900;8.208;2022-11-14T08:34:18;5.90;99.90
18456;DHT22;9357;49.900;8.208;2022-11-14T08:35:52;5.90;99.90
18456;DHT22;9357;49.900;8.208;2022-11-14T08:37:25;5.90;99.90
18456;DHT22;9357;49.900;8.208;2022-11-14T08:38:58;6.00;99.90
18456;DHT22;9357;49.900;8.208;2022-11-14T08:40:32;6.00;99.90
18456;DHT22;9357;49.900;8.208;2022-11-14T08:42:05;6.00;99.90
18456;DHT22;9357;49.900;8.208;2022-11-14T08:43:38;6.00;99.90
18456;DHT22;9357;49.900;8.208;2022-11-14T08:45:11;6.00;99.90
18456;DHT22;9357;49.900;8.208;2022-11-14T08:46:43;6.00;99.90
18456;DHT22;9357;49.900;8.208;2022-11-14T08:48:16;6.00;99.90
18456;DHT22;9357;49.900;8.208;2022-11-14T08:49:50;6.00;99.90
18456;DHT22;9357;49.900;8.208;2022-11-14T08:51:23;6.00;99.90
18456;DHT22;9357;49.900;8.208;2022-11-14T08:52:56;6.10;99.90
18456;DHT22;9357;49.900;8.208;2022-11-14T08:54:29;6.10;99.90
18456;DHT22;9357;49.900;8.208;2022-11-14T08:56:01;6.10;99.90
18456;DHT22;9357;49.900;8.208;2022-11-14T08:57:34;6.10;99.90
18456;DHT22;9357;49.900;8.208;2022-11-14T08:59:07;6.10;99.90
18456;DHT22;9357;49.900;8.208;2022-11-14T09:00:40;6.10;99.90
18456;DHT22;9357;49.900;8.208;2022-11-14T09:02:13;6.10;99.90
18456;DHT22;9357;49.900;8.208;2022-11-14T09:03:46;6.10;99.90
18456;DHT22;9357;49.900;8.208;2022-11-14T09:05:20;6.20;99.90
18456;DHT22;9357;49.900;8.208;2022-11-14T09:06:53;6.20;99.90
18456;DHT22;9357;49.900;8.208;2022-11-14T09:08:27;6.20;99.90
18456;DHT22;9357;49.900;8.208;2022-11-14T09:10:00;6.20;99.90
18456;DHT22;9357;49.900;8.208;2022-11-14T09:11:33;6.20;99.90
18456;DHT22;9357;49.900;8.208;2022-11-14T09:13:06;6.20;99.90
18456;DHT22;9357;49.900;8.208;2022-11-14T09:14:39;6.20;99.90
18456;DHT22;9357;49.900;8.208;2022-11-14T09:16:11;6.30;99.90
18456;DHT22;9357;49.900;8.208;2022-11-14T09:17:44;6.30;99.90
18456;DHT22;9357;49.900;8.208;2022-11-14T09:19:17;6.30;99.90
18456;DHT22;9357;49.900;8.208;2022-11-14T09:20:51;6.30;99.90
18456;DHT22;9357;49.900;8.208;2022-11-14T09:22:24;6.30;99.90
18456;DHT22;9357;49.900;8.208;2022-11-14T09:23:57;6.30;99.90
18456;DHT22;9357;49.900;8.208;2022-11-14T09:25:32;6.40;99.90
18456;DHT22;9357;49.900;8.208;2022-11-14T09:27:05;6.40;99.90
18456;DHT22;9357;49.900;8.208;2022-11-14T09:28:38;6.40;99.90
18456;DHT22;9357;49.900;8.208;2022-11-14T09:30:11;6.40;99.90
18456;DHT22;9357;49.900;8.208;2022-11-14T09:31:44;6.40;99.90
18456;DHT22;9357;49.900;8.208;2022-11-14T09:33:17;6.40;99.90
18456;DHT22;9357;49.900;8.208;2022-11-14T09:34:50;6.40;99.90
18456;DHT22;9357;49.900;8.208;2022-11-14T09:36:24;6.40;99.90
18456;DHT22;9357;49.900;8.208;2022-11-14T09:38:00;6.50;99.90
18456;DHT22;9357;49.900;8.208;2022-11-14T09:39:33;6.50;99.90
18456;DHT22;9357;49.900;8.208;2022-11-14T09:41:23;6.60;99.90
18456;DHT22;9357;49.900;8.208;2022-11-14T09:43:17;6.60;99.90
18456;DHT22;9357;49.900;8.208;2022-11-14T09:44:56;6.60;99.90
18456;DHT22;9357;49.900;8.208;2022-11-14T09:46:32;6.70;99.90
18456;DHT22;9357;49.900;8.208;2022-11-14T09:48:09;6.70;99.90
18456;DHT22;9357;49.900;8.208;2022-11-14T09:49:44;6.70;99.90
18456;DHT22;9357;49.900;8.208;2022-11-14T09:51:20;6.70;99.90
18456;DHT22;9357;49.900;8.208;2022-11-14T09:52:57;6.70;99.90
18456;DHT22;9357;49.900;8.208;2022-11-14T09:54:37;6.70;99.90
18456;DHT22;9357;49.900;8.208;2022-11-14T09:56:13;6.70;99.90
18456;DHT22;9357;49.900;8.208;2022-11-14T09:57:46;6.80;99.90
18456;DHT22;9357;49.900;8.208;2022-11-14T09:59:19;6.80;99.90
18456;DHT22;9357;49.900;8.208;2022-11-14T10:00:57;6.80;99.90
18456;DHT22;9357;49.900;8.208;2022-11-14T10:02:48;6.80;99.90
18456;DHT22;9357;49.900;8.208;2022-11-14T10:04:35;6.90;99.90
18456;DHT22;9357;49.900;8.208;2022-11-14T10:06:19;6.90;99.90
18456;DHT22;9357;49.900;8.208;2022-11-14T10:08:08;7.00;99.90
18456;DHT22;9357;49.900;8.208;2022-11-14T10:09:49;7.00;99.90
18456;DHT22;9357;49.900;8.208;2022-11-14T10:11:31;7.10;99.90